createdAt,value
2023-01-06T00:04:03.109Z,45.46
2023-01-06T00:09:06.143Z,45.50
2023-01-06T00:14:09.127Z,45.49
2023-01-06T00:19:13.266Z,45.75
2023-01-06T00:24:16.159Z,45.60
2023-01-06T00:29:18.951Z,45.89
2023-01-06T00:34:23.170Z,45.83
2023-01-06T00:39:26.046Z,45.90
2023-01-06T00:44:28.975Z,45.86
2023-01-06T00:49:33.138Z,45.88
2023-01-06T00:54:36.668Z,45.89
2023-01-06T00:59:39.448Z,46.24
2023-01-06T01:04:43.634Z,46.00
2023-01-06T01:09:46.470Z,46.16
2023-01-06T01:14:50.773Z,46.28
2023-01-06T01:19:55.741Z,46.35
2023-01-06T01:24:58.576Z,46.34
2023-01-06T01:30:01.423Z,46.36
2023-01-06T01:35:06.104Z,46.37
2023-01-06T01:40:10.494Z,46.49
2023-01-06T01:45:19.945Z,46.30
2023-01-06T01:50:31.145Z,46.30
2023-01-06T01:55:34.105Z,46.27
2023-01-06T02:00:36.861Z,46.24
2023-01-06T02:05:42.571Z,46.34
2023-01-06T02:10:45.513Z,46.29
2023-01-06T02:15:48.427Z,46.21
2023-01-06T02:21:13.324Z,46.17
2023-01-06T02:26:49.971Z,46.47
2023-01-06T02:32:00.725Z,46.50
2023-01-06T02:37:06.894Z,46.93
2023-01-06T02:42:15.801Z,46.92
2023-01-06T02:47:22.407Z,46.86
2023-01-06T02:52:28.125Z,46.86
2023-01-06T02:57:33.425Z,46.85
2023-01-06T03:02:41.480Z,46.94
2023-01-06T03:07:45.320Z,46.90
2023-01-06T03:12:50.719Z,46.92
2023-01-06T03:17:55.868Z,46.76
2023-01-06T03:22:58.756Z,46.87
2023-01-06T03:28:02.376Z,47.05
2023-01-06T03:33:10.993Z,47.02
2023-01-06T03:38:15.955Z,46.89
2023-01-06T03:43:22.358Z,46.92
2023-01-06T03:48:32.496Z,46.91
2023-01-06T03:53:38.090Z,46.89
2023-01-06T03:58:41.037Z,46.82
2023-01-06T04:03:47.655Z,46.88
2023-01-06T04:08:50.722Z,46.77
2023-01-06T04:13:53.905Z,46.81
2023-01-06T04:18:58.120Z,46.86
2023-01-06T04:24:01.035Z,47.02
2023-01-06T04:29:04.603Z,46.75
2023-01-06T04:34:10.129Z,47.01
2023-01-06T04:39:13.045Z,47.15
2023-01-06T04:44:15.867Z,47.15
2023-01-06T04:49:19.978Z,47.51
2023-01-06T04:54:22.968Z,47.52
2023-01-06T04:59:25.710Z,47.54
2023-01-06T05:04:34.206Z,47.81
2023-01-06T05:09:39.924Z,47.96
2023-01-06T05:14:42.731Z,48.13
2023-01-06T05:19:46.861Z,48.14
2023-01-06T05:24:49.650Z,48.26
2023-01-06T05:29:52.419Z,48.08
2023-01-06T05:34:56.570Z,48.18
2023-01-06T05:39:59.428Z,48.35
2023-01-06T05:45:02.242Z,48.67
2023-01-06T05:50:07.313Z,48.64
2023-01-06T05:55:10.419Z,48.64
2023-01-06T06:00:14.030Z,49.06
2023-01-06T06:05:18.386Z,49.41
2023-01-06T06:10:21.240Z,49.76
2023-01-06T06:15:24.022Z,49.72
2023-01-06T06:20:28.188Z,49.63
2023-01-06T06:25:30.963Z,49.94
2023-01-06T06:30:33.766Z,49.94
2023-01-06T06:35:37.887Z,50.11
2023-01-06T06:40:40.644Z,50.16
2023-01-06T06:45:45.300Z,50.27
2023-01-06T06:50:57.189Z,50.31
2023-01-06T06:56:00.012Z,50.54
2023-01-06T07:01:05.118Z,50.72
2023-01-06T07:06:10.989Z,50.87
2023-01-06T07:11:13.769Z,50.80
2023-01-06T07:16:16.718Z,51.00
2023-01-06T07:21:20.926Z,51.07
2023-01-06T07:26:23.702Z,50.81
2023-01-06T07:31:26.674Z,51.18
2023-01-06T07:36:30.814Z,51.13
2023-01-06T07:41:33.609Z,51.20
2023-01-06T07:46:36.743Z,51.50
2023-01-06T07:51:40.907Z,51.26
2023-01-06T07:56:44.396Z,51.27
2023-01-06T08:01:47.275Z,51.55
2023-01-06T08:06:51.478Z,51.48
2023-01-06T08:11:54.208Z,51.50
2023-01-06T08:16:57.041Z,51.71
2023-01-06T08:22:01.193Z,48.40
2023-01-06T08:27:04.008Z,44.96
2023-01-06T08:32:10.745Z,46.29
2023-01-06T08:37:15.331Z,46.69
2023-01-06T08:42:18.271Z,48.50
2023-01-06T08:47:21.026Z,48.43
2023-01-06T08:52:25.168Z,48.38
2023-01-06T08:57:28.053Z,47.79
2023-01-06T09:02:31.475Z,47.93
2023-01-06T09:07:35.646Z,47.62
2023-01-06T09:12:38.477Z,47.45
2023-01-06T09:17:41.394Z,47.79
2023-01-06T09:22:45.946Z,47.73
2023-01-06T09:27:48.707Z,48.07
2023-01-06T09:32:51.472Z,47.89
2023-01-06T09:37:55.672Z,47.97
2023-01-06T09:43:03.863Z,48.29
2023-01-06T09:48:07.668Z,48.70
2023-01-06T09:53:14.273Z,48.70
2023-01-06T09:58:18.099Z,48.98
2023-01-06T10:03:21.945Z,49.14
2023-01-06T10:08:29.904Z,49.03
2023-01-06T10:13:39.404Z,49.11
2023-01-06T10:18:46.539Z,49.15
2023-01-06T10:24:05.624Z,49.04
2023-01-06T10:29:11.460Z,49.12
2023-01-06T10:34:18.820Z,49.10
2023-01-06T10:39:23.805Z,49.20
2023-01-06T10:44:26.660Z,49.21
2023-01-06T10:49:29.432Z,49.14
2023-01-06T10:54:34.652Z,49.06
2023-01-06T10:59:55.922Z,49.58
2023-01-06T11:05:00.482Z,49.45
2023-01-06T11:10:12.290Z,49.78
2023-01-06T11:15:20.681Z,50.32
2023-01-06T11:20:31.621Z,50.53
2023-01-06T11:25:35.710Z,50.79
2023-01-06T11:30:40.110Z,50.77
2023-01-06T11:35:42.871Z,50.55
2023-01-06T11:40:47.695Z,50.52
2023-01-06T11:45:51.170Z,50.37
2023-01-06T11:50:54.704Z,50.39
2023-01-06T11:56:02.198Z,50.25
2023-01-06T12:01:07.285Z,47.09
2023-01-06T12:06:19.911Z,43.99
2023-01-06T12:11:26.734Z,43.88
2023-01-06T12:16:35.346Z,47.94
2023-01-06T12:21:38.275Z,48.56
2023-01-06T12:26:42.421Z,49.23
2023-01-06T12:31:48.600Z,49.24
2023-01-06T12:36:53.122Z,50.16
2023-01-06T12:41:59.035Z,50.88
2023-01-06T12:47:06.188Z,50.32
2023-01-06T12:52:10.516Z,50.69
2023-01-06T12:57:20.832Z,46.02
2023-01-06T13:02:40.802Z,42.01
2023-01-06T13:07:46.353Z,43.79
2023-01-06T13:12:54.691Z,43.99
2023-01-06T13:18:04.732Z,46.98
2023-01-06T13:23:19.645Z,43.91
2023-01-06T13:28:28.179Z,48.64
2023-01-06T13:33:55.202Z,48.60
2023-01-06T13:38:59.146Z,48.51
2023-01-06T13:44:03.499Z,49.12
2023-01-06T13:49:06.439Z,49.82
2023-01-06T13:54:51.115Z,44.98
2023-01-06T13:59:55.488Z,44.53
2023-01-06T14:04:58.690Z,48.45
2023-01-06T14:10:01.623Z,48.27
2023-01-06T14:15:07.095Z,45.88
2023-01-06T14:20:29.381Z,48.70
2023-01-06T14:25:32.356Z,49.70
2023-01-06T14:30:36.690Z,49.52
2023-01-06T14:35:43.745Z,50.49
2023-01-06T14:40:50.586Z,50.22
2023-01-06T14:45:54.753Z,50.01
2023-01-06T14:50:58.867Z,50.30
2023-01-06T14:56:01.675Z,50.42
2023-01-06T15:01:06.554Z,50.82
2023-01-06T15:06:14.476Z,50.67
2023-01-06T15:11:25.841Z,50.68
2023-01-06T15:16:35.647Z,50.62
2023-01-06T15:21:39.471Z,50.46
2023-01-06T15:26:42.498Z,50.32
2023-01-06T15:31:46.803Z,50.27
2023-01-06T15:36:50.501Z,50.22
2023-01-06T15:41:53.337Z,49.97
2023-01-06T15:46:59.497Z,49.82
2023-01-06T15:52:04.602Z,49.60
2023-01-06T15:57:16.608Z,49.47
2023-01-06T16:02:21.382Z,49.44
2023-01-06T16:07:35.089Z,49.19
2023-01-06T16:12:38.036Z,49.09
2023-01-06T16:17:45.555Z,48.85
2023-01-06T16:22:49.242Z,48.79
2023-01-06T16:27:52.461Z,48.77
2023-01-06T16:32:56.670Z,48.85
2023-01-06T16:37:59.580Z,48.44
2023-01-06T16:43:02.802Z,48.52
2023-01-06T16:48:07.359Z,48.59
2023-01-06T16:53:13.238Z,48.52
2023-01-06T16:58:17.400Z,48.45
2023-01-06T17:03:22.316Z,49.60
2023-01-06T17:08:26.923Z,49.67
2023-01-06T17:13:36.139Z,49.97
2023-01-06T17:18:48.904Z,49.73
2023-01-06T17:23:53.809Z,49.66
2023-01-06T17:28:57.197Z,49.39
2023-01-06T17:34:07.022Z,48.99
2023-01-06T17:39:15.891Z,48.88
2023-01-06T17:44:20.105Z,48.66
2023-01-06T17:49:35.006Z,48.49
2023-01-06T17:54:55.254Z,48.43
2023-01-06T17:59:58.236Z,48.50
2023-01-06T18:05:02.774Z,48.24
2023-01-06T18:10:08.359Z,48.35
2023-01-06T18:15:28.487Z,48.20
2023-01-06T18:20:33.049Z,47.98
2023-01-06T18:25:36.122Z,48.02
2023-01-06T18:30:39.279Z,47.91
2023-01-06T18:35:43.522Z,47.69
2023-01-06T18:40:46.507Z,47.80
2023-01-06T18:45:49.853Z,47.45
2023-01-06T18:50:54.311Z,47.33
2023-01-06T18:55:57.751Z,47.30
2023-01-06T19:01:02.123Z,47.23
2023-01-06T19:06:32.395Z,47.20
2023-01-06T19:11:35.526Z,46.96
2023-01-06T19:16:39.558Z,46.88
2023-01-06T19:21:43.878Z,46.85
2023-01-06T19:26:46.815Z,46.54
2023-01-06T19:31:53.706Z,46.66
2023-01-06T19:36:58.226Z,46.46
2023-01-06T19:42:14.787Z,46.54
2023-01-06T19:47:19.383Z,46.55
2023-01-06T19:52:32.757Z,46.54
2023-01-06T19:57:37.715Z,46.45
2023-01-06T20:02:44.132Z,46.59
2023-01-06T20:07:48.514Z,46.37
2023-01-06T20:12:51.305Z,46.24
2023-01-06T20:17:54.160Z,46.20
2023-01-06T20:22:58.466Z,46.33
2023-01-06T20:28:01.266Z,46.29
2023-01-06T20:33:04.255Z,46.11
2023-01-06T20:38:08.455Z,46.13
2023-01-06T20:43:11.230Z,46.02
2023-01-06T20:48:14.250Z,46.05
2023-01-06T20:53:18.882Z,46.07
2023-01-06T20:58:22.256Z,45.92
2023-01-06T21:03:25.049Z,45.84
2023-01-06T21:08:29.240Z,45.84
2023-01-06T21:13:32.063Z,46.06
2023-01-06T21:18:34.997Z,45.97
2023-01-06T21:23:39.330Z,45.90
2023-01-06T21:28:42.077Z,45.50
2023-01-06T21:33:44.878Z,45.82
2023-01-06T21:38:49.059Z,45.98
2023-01-06T21:43:51.956Z,45.78
2023-01-06T21:48:54.756Z,45.88
2023-01-06T21:53:59.063Z,46.18
2023-01-06T21:59:02.005Z,46.12
2023-01-06T22:04:05.092Z,46.32
2023-01-06T22:09:09.423Z,46.33
2023-01-06T22:14:12.509Z,46.13
2023-01-06T22:19:15.435Z,46.19
2023-01-06T22:24:19.612Z,46.35
2023-01-06T22:29:22.340Z,46.51
2023-01-06T22:34:25.111Z,46.53
2023-01-06T22:39:29.221Z,46.52
2023-01-06T22:44:32.144Z,46.43
2023-01-06T22:49:34.954Z,46.67
2023-01-06T22:54:39.094Z,46.38
2023-01-06T22:59:41.920Z,46.37
2023-01-06T23:04:44.692Z,46.54
2023-01-06T23:09:48.861Z,46.36
2023-01-06T23:14:52.047Z,46.45
2023-01-06T23:19:54.931Z,46.42
2023-01-06T23:24:59.047Z,46.56
2023-01-06T23:30:01.826Z,46.60
2023-01-06T23:35:05.036Z,46.78
2023-01-06T23:40:10.695Z,47.05
2023-01-06T23:45:13.478Z,46.81
2023-01-06T23:50:16.600Z,46.71
2023-01-06T23:55:20.731Z,46.99
